Time;durP1;ratioP1;P1;durP2;ratioP2;P2;SDS_P1;SDS_P2;PMS_P1;PMS_P2;Temp;Humidity;BMP_temperature;BMP_pressure;BME280_temperature;BME280_humidity;BME280_pressure;Samples;Min_cycle;Max_cycle;Signal;HPM_P1;HPM_P2
2023/09/11 00:01:08;;;;;;;28.53;21.33;;;17.20;99.90;;;;;;4972033;28;21243;-56
2023/09/11 00:03:36;;;;;;;27.07;20.40;;;;;;;;;;4990418;28;20686;-58
2023/09/11 00:06:05;;;;;;;25.93;20.73;;;;;;;;;;4990752;28;20280;-50
2023/09/11 00:08:32;;;;;;;29.60;23.43;;;16.90;99.90;;;;;;4993312;28;20197;-57
2023/09/11 00:10:59;;;;;;;25.50;21.33;;;17.20;99.90;;;;;;4991997;28;20251;-50
2023/09/11 00:13:28;;;;;;;27.33;22.17;;;;;;;;;;4991746;28;20287;-58
2023/09/11 00:15:56;;;;;;;25.93;21.90;;;;;;;;;;4994358;28;20272;-52
2023/09/11 00:18:24;;;;;;;26.33;21.80;;;;;;;;;;4970924;28;20263;-57
2023/09/11 00:20:54;;;;;;;26.43;21.03;;;;;;;;;;4997061;28;20200;-48
2023/09/11 00:23:24;;;;;;;28.20;22.00;;;;;;;;;;4990925;28;20472;-56
2023/09/11 00:25:54;;;;;;;25.30;20.97;;;;;;;;;;4989406;28;20258;-52
2023/09/11 00:28:24;;;;;;;26.60;21.50;;;;;;;;;;4993408;28;20874;-57
2023/09/11 00:30:55;;;;;;;25.67;20.90;;;;;;;;;;4986330;28;20590;-49
2023/09/11 00:33:25;;;;;;;25.40;21.67;;;;;;;;;;4970935;28;20205;-58
2023/09/11 00:35:55;;;;;;;22.80;19.43;;;;;;;;;;4987886;28;20201;-49
2023/09/11 00:38:25;;;;;;;24.87;20.03;;;;;;;;;;4997574;28;20878;-49
2023/09/11 00:40:55;;;;;;;26.00;21.53;;;;;;;;;;4989862;28;20200;-55
2023/09/11 00:43:25;;;;;;;28.17;22.60;;;;;;;;;;4981740;28;20959;-53
2023/09/11 00:45:55;;;;;;;28.17;21.47;;;;;;;;;;4983956;28;20185;-53
2023/09/11 00:48:26;;;;;;;26.33;20.73;;;;;;;;;;4966677;28;20901;-53
2023/09/11 00:50:55;;;;;;;26.00;21.57;;;;;;;;;;4983712;28;20197;-55
2023/09/11 00:53:22;;;;;;;26.47;21.23;;;;;;;;;;4985963;28;20206;-53
2023/09/11 00:55:49;;;;;;;27.27;22.10;;;;;;;;;;4994489;28;20271;-52
2023/09/11 00:58:17;;;;;;;24.70;20.27;;;;;;;;;;4992770;28;20201;-52
2023/09/11 01:00:44;;;;;;;25.33;20.83;;;;;;;;;;4993027;28;20200;-54
2023/09/11 01:03:13;;;;;;;25.60;20.43;;;;;;;;;;4970590;28;22781;-53
2023/09/11 01:05:40;;;;;;;29.50;22.13;;;;;;;;;;4989163;28;20210;-49
2023/09/11 01:08:07;;;;;;;28.83;22.93;;;;;;;;;;4988653;28;20192;-52
2023/09/11 01:10:35;;;;;;;28.60;22.10;;;;;;;;;;4990900;28;20197;-52
2023/09/11 01:13:03;;;;;;;31.70;23.30;;;;;;;;;;4986785;28;20200;-55
2023/09/11 01:15:33;;;;;;;28.07;22.43;;;;;;;;;;4986642;28;20368;-50
2023/09/11 01:18:05;;;;;;;29.53;22.87;;;;;;;;;;4969730;28;20193;-52
2023/09/11 01:20:40;;;;;;;31.03;24.10;;;;;;;;;;4962421;28;20256;-55
2023/09/11 01:23:22;;;;;;;29.83;23.23;;;;;;;;;;4986863;28;20397;-50
2023/09/11 01:25:58;;;;;;;30.73;23.17;;;;;;;;;;4977891;28;20876;-52
2023/09/11 01:28:34;;;;;;;32.10;23.87;;;;;;;;;;4993780;28;20259;-49
2023/09/11 01:31:03;;;;;;;30.47;21.97;;;;;;;;;;4992830;28;20184;-51
2023/09/11 01:33:30;;;;;;;28.27;21.03;;;;;;;;;;4983440;28;20296;-54
2023/09/11 01:35:57;;;;;;;27.43;23.17;;;;;;;;;;4974194;28;20219;-51
2023/09/11 01:38:24;;;;;;;24.80;19.87;;;;;;;;;;4988188;28;20248;-53
2023/09/11 01:40:54;;;;;;;27.10;20.60;;;;;;;;;;4969891;28;20311;-54
2023/09/11 01:43:21;;;;;;;29.10;20.80;;;;;;;;;;4991756;28;20401;-53
2023/09/11 01:45:50;;;;;;;26.23;21.53;;;;;;;;;;4983093;28;20197;-50
2023/09/11 01:48:19;;;;;;;25.80;20.63;;;;;;;;;;4992901;28;20275;-51
2023/09/11 01:50:46;;;;;;;27.43;21.87;;;;;;;;;;4969873;28;20287;-55
2023/09/11 01:53:13;;;;;;;32.30;23.83;;;;;;;;;;4985721;28;20217;-49
2023/09/11 01:55:41;;;;;;;31.93;24.00;;;;;;;;;;4984480;28;20212;-54
2023/09/11 01:58:08;;;;;;;32.63;22.17;;;;;;;;;;4991626;28;20225;-51
2023/09/11 02:00:36;;;;;;;33.33;23.00;;;;;;;;;;4991864;28;20197;-54
2023/09/11 02:03:03;;;;;;;31.20;22.30;;;;;;;;;;4989064;28;20267;-54
2023/09/11 02:05:31;;;;;;;29.87;23.27;;;;;;;;;;4989646;28;20274;-56
2023/09/11 02:07:58;;;;;;;33.17;23.80;;;;;;;;;;4966921;28;20181;-53
2023/09/11 02:10:25;;;;;;;31.63;22.83;;;;;;;;;;4982613;28;20570;-50
2023/09/11 02:12:53;;;;;;;34.67;24.83;;;;;;;;;;4980430;28;20899;-48
2023/09/11 02:15:20;;;;;;;30.67;23.93;;;;;;;;;;4992401;28;20224;-49
2023/09/11 02:17:47;;;;;;;30.57;22.77;;;;;;;;;;4984596;28;20217;-55
2023/09/11 02:20:14;;;;;;;28.30;22.43;;;;;;;;;;4989099;28;20735;-48
2023/09/11 02:22:43;;;;;;;31.87;23.13;;;;;;;;;;4973119;28;20221;-56
2023/09/11 02:25:10;;;;;;;32.13;23.67;;;;;;;;;;4986045;28;20232;-48
2023/09/11 02:27:38;;;;;;;27.53;22.00;;;;;;;;;;4987095;28;20746;-53
2023/09/11 02:30:06;;;;;;;29.80;22.10;;;;;;;;;;4987889;28;20197;-49
2023/09/11 02:32:33;;;;;;;28.00;21.87;;;;;;;;;;4991187;28;20202;-53
2023/09/11 02:35:00;;;;;;;33.87;22.40;;;;;;;;;;4993605;28;20216;-51
2023/09/11 02:37:27;;;;;;;30.20;22.23;;;;;;;;;;4972476;28;20693;-53
2023/09/11 02:39:56;;;;;;;28.60;22.90;;;;;;;;;;4989620;28;20247;-51
2023/09/11 02:42:23;;;;;;;29.93;22.77;;;;;;;;;;4993298;28;20201;-56
2023/09/11 02:44:51;;;;;;;31.13;22.97;;;;;;;;;;4988097;28;20930;-53
2023/09/11 02:47:18;;;;;;;27.83;21.37;;;;;;;;;;4994103;28;20248;-52
2023/09/11 02:49:45;;;;;;;31.00;22.73;;;;;;;;;;4985311;28;20261;-54
2023/09/11 02:52:12;;;;;;;34.77;23.23;;;;;;;;;;4969433;28;20382;-51
2023/09/11 02:54:39;;;;;;;33.50;24.17;;;;;;;;;;4982172;28;20223;-56
2023/09/11 02:57:08;;;;;;;29.03;23.00;;;;;;;;;;4989642;28;20274;-52
2023/09/11 02:59:35;;;;;;;29.13;23.47;;;;;;;;;;4986975;28;20603;-50
2023/09/11 03:02:02;;;;;;;30.87;23.57;;;;;;;;;;4987389;28;20223;-53
2023/09/11 03:04:29;;;;;;;34.87;23.93;;;;;;;;;;4985270;28;20702;-53
2023/09/11 03:06:57;;;;;;;34.67;23.37;;;;;;;;;;4984407;28;20248;-51
2023/09/11 03:09:24;;;;;;;29.57;23.17;;;;;;;;;;4968092;28;20219;-48
2023/09/11 03:11:51;;;;;;;33.50;24.47;;;;;;;;;;4986356;28;20185;-51
2023/09/11 03:14:20;;;;;;;34.40;24.10;;;;;;;;;;4998195;28;20223;-48
2023/09/11 03:16:47;;;;;;;29.63;23.37;;;;;;;;;;4997420;28;20212;-56
2023/09/11 03:19:14;;;;;;;32.07;23.43;;;;;;;;;;4990348;28;20201;-52
2023/09/11 03:21:41;;;;;;;31.60;23.40;;;;;;;;;;4994821;28;20197;-56
2023/09/11 03:24:09;;;;;;;31.53;23.87;;;;;;;;;;4973711;28;20228;-55
2023/09/11 03:26:37;;;;;;;33.23;23.43;;;;;;;;;;4982987;28;20189;-54
2023/09/11 03:29:05;;;;;;;30.03;23.43;;;;;;;;;;4986069;28;20220;-57
2023/09/11 03:31:33;;;;;;;31.73;24.03;;;;;;;;;;4988599;28;20197;-57
2023/09/11 03:34:00;;;;;;;31.03;22.23;;;;;;;;;;4996354;28;20236;-50
2023/09/11 03:36:27;;;;;;;32.93;24.37;;;;;;;;;;4992996;28;20738;-50
2023/09/11 03:38:55;;;;;;;34.17;24.07;;;;;;;;;;4955662;28;20209;-48
2023/09/11 03:41:22;;;;;;;33.90;23.67;;;;;;;;;;4984640;28;20223;-56
2023/09/11 03:43:49;;;;;;;32.50;23.17;;;;;;;;;;4968466;28;20689;-53
2023/09/11 03:46:16;;;;;;;31.20;22.80;;;;;;;;;;4980630;28;20197;-49
2023/09/11 03:48:48;;;;;;;31.10;22.67;;;;;;;;;;4977258;28;20214;-54
2023/09/11 03:51:17;;;;;;;26.43;21.70;;;;;;;;;;4981828;28;20635;-48
2023/09/11 03:53:45;;;;;;;29.47;21.80;;;;;;;;;;4969830;28;20224;-48
2023/09/11 03:56:14;;;;;;;27.90;22.67;;;;;;;;;;4990924;28;20191;-52
2023/09/11 03:58:44;;;;;;;31.13;23.30;;;;;;;;;;4988619;28;20202;-53
2023/09/11 04:01:11;;;;;;;30.33;23.20;;;;;;;;;;4978313;28;20199;-55
2023/09/11 04:03:38;;;;;;;26.60;21.20;;;;;;;;;;4987029;28;20217;-53
2023/09/11 04:06:06;;;;;;;25.87;21.70;;;;;;;;;;4985411;28;20193;-55
2023/09/11 04:08:33;;;;;;;26.93;21.30;;;;;;;;;;4989344;28;20267;-49
2023/09/11 04:11:01;;;;;;;24.03;21.00;;;;;;;;;;4966256;28;20295;-53
2023/09/11 04:13:29;;;;;;;26.63;20.97;;;;;;;;;;4989977;28;20683;-53
2023/09/11 04:15:56;;;;;;;25.30;20.90;;;;;;;;;;4977836;28;20209;-55
2023/09/11 04:18:23;;;;;;;25.27;20.83;;;;;;;;;;4986158;28;20293;-53
2023/09/11 04:20:50;;;;;;;26.90;21.67;;;;;;;;;;4972477;28;20291;-55
2023/09/11 04:23:19;;;;;;;24.57;21.07;;;;;;;;;;4986047;28;20309;-54
2023/09/11 04:25:46;;;;;;;22.90;18.83;;;;;;;;;;4969355;28;20240;-55
2023/09/11 04:28:14;;;;;;;23.10;19.90;;;;;;;;;;4986398;28;20192;-49
2023/09/11 04:30:41;;;;;;;28.23;20.03;;;;;;;;;;4975557;28;20858;-54
2023/09/11 04:33:08;;;;;;;25.40;20.20;;;;;;;;;;4982639;28;20953;-49
2023/09/11 04:35:35;;;;;;;22.53;19.80;;;;;;;;;;4982579;28;20197;-54
2023/09/11 04:38:03;;;;;;;23.00;19.87;;;;;;;;;;4966703;28;20497;-48
2023/09/11 04:40:32;;;;;;;21.83;19.27;;;;;;;;;;4977488;28;20198;-54
2023/09/11 04:42:59;;;;;;;24.27;20.13;;;;;;;;;;4976479;28;20204;-52
2023/09/11 04:45:25;;;;;;;21.23;18.83;;;;;;;;;;4990881;28;20590;-53
2023/09/11 04:47:52;;;;;;;21.77;19.43;;;;;;;;;;4979031;28;20883;-51
2023/09/11 04:50:20;;;;;;;21.63;18.80;;;;;;;;;;4983292;28;20248;-53
2023/09/11 04:52:47;;;;;;;25.20;19.60;;;;;;;;;;4981200;28;20263;-54
2023/09/11 04:55:14;;;;;;;24.27;19.67;;;;;;;;;;4984140;28;20217;-56
2023/09/11 04:57:42;;;;;;;22.83;19.43;;;;;;;;;;4964569;28;20222;-55
2023/09/11 05:00:10;;;;;;;22.93;19.67;;;;;;;;;;4982978;28;20204;-56
2023/09/11 05:02:40;;;;;;;21.70;19.03;;;;;;;;;;4976957;28;20189;-52
2023/09/11 05:05:07;;;;;;;22.40;19.90;;;;;;;;;;4983947;28;20700;-56
2023/09/11 05:07:34;;;;;;;21.03;18.47;;;;;;;;;;4980608;28;20692;-50
2023/09/11 05:10:05;;;;;;;23.57;19.33;;;;;;;;;;4978900;28;20584;-52
2023/09/11 05:12:32;;;;;;;24.07;20.07;;;;;;;;;;4957811;28;20218;-55
2023/09/11 05:15:01;;;;;;;22.13;19.67;;;;;;;;;;4968078;28;20220;-50
2023/09/11 05:17:28;;;;;;;21.90;19.60;;;;;;;;;;4990393;28;20240;-50
2023/09/11 05:19:55;;;;;;;22.70;20.30;;;;;;;;;;4985945;28;20205;-52
2023/09/11 05:22:22;;;;;;;22.20;19.53;;;;;;;;;;4983407;28;20201;-52
2023/09/11 05:24:50;;;;;;;24.20;20.43;;;;;;;;;;4984029;28;20225;-55
2023/09/11 05:27:17;;;;;;;23.80;20.20;;;;;;;;;;4983090;28;20664;-53
2023/09/11 05:29:44;;;;;;;23.60;20.90;;;;;;;;;;4958407;28;20220;-55
2023/09/11 05:32:13;;;;;;;24.60;20.37;;;;;;;;;;4972809;28;20193;-54
2023/09/11 05:34:41;;;;;;;24.60;20.73;;;;;;;;;;4983383;28;20248;-52
2023/09/11 05:37:08;;;;;;;24.13;21.53;;;;;;;;;;4985705;28;20228;-56
2023/09/11 05:39:35;;;;;;;25.00;21.30;;;;;;;;;;4978219;28;20735;-54
2023/09/11 05:42:02;;;;;;;24.17;20.80;;;;;;;;;;4976507;28;20252;-51
2023/09/11 05:44:29;;;;;;;24.50;19.57;;;;;;;;;;4970317;28;20233;-54
2023/09/11 05:46:56;;;;;;;23.10;20.33;;;;;;;;;;4970936;28;21083;-52
2023/09/11 05:49:25;;;;;;;23.33;20.50;;;;;;;;;;4987620;28;20209;-56
2023/09/11 05:51:52;;;;;;;23.63;20.60;;;;;;;;;;4982454;28;20894;-54
2023/09/11 05:54:19;;;;;;;23.43;20.30;;;;;;;;;;4982935;28;20287;-54
2023/09/11 05:56:46;;;;;;;24.13;20.77;;;;;;;;;;4981712;28;20251;-53
2023/09/11 05:59:18;;;;;;;25.93;21.90;;;;;;;;;;4968622;28;20299;-53
2023/09/11 06:01:45;;;;;;;23.97;21.37;;;;;;;;;;4976045;28;20213;-56
2023/09/11 06:04:13;;;;;;;22.70;20.13;;;;;;;;;;4975111;28;20217;-49
2023/09/11 06:06:41;;;;;;;24.00;21.10;;;;;;;;;;4987799;28;20208;-56
2023/09/11 06:09:09;;;;;;;26.30;21.93;;;;;;;;;;4986650;28;20244;-53
2023/09/11 06:11:36;;;;;;;25.47;22.13;;;;;;;;;;4974288;28;20557;-55
2023/09/11 06:14:03;;;;;;;27.73;22.60;;;;;;;;;;4979099;28;20295;-51
2023/09/11 06:16:31;;;;;;;26.10;21.70;;;;;;;;;;4955409;28;20283;-55
2023/09/11 06:18:58;;;;;;;28.17;22.73;;;;;;;;;;4978178;28;20271;-52
2023/09/11 06:21:25;;;;;;;25.70;22.17;;;;;;;;;;4983254;28;20192;-56
2023/09/11 06:23:54;;;;;;;24.67;21.50;;;;;;;;;;4985776;28;20772;-52
2023/09/11 06:26:21;;;;;;;25.97;22.00;;;;;;;;;;4982163;28;20264;-55
2023/09/11 06:28:48;;;;;;;28.53;21.60;;;;;;;;;;4989554;28;20515;-49
2023/09/11 06:31:15;;;;;;;24.23;21.43;;;;;;;;;;4972307;28;20237;-56
2023/09/11 06:33:43;;;;;;;26.07;21.83;;;;;;;;;;4978559;28;20299;-54
2023/09/11 06:36:10;;;;;;;27.93;23.27;;;;;;;;;;4980879;28;20224;-49
2023/09/11 06:38:37;;;;;;;26.33;23.00;;;;;;;;;;4988011;28;20982;-49
2023/09/11 06:41:06;;;;;;;27.70;23.10;;;;;;;;;;4983518;28;20271;-52
2023/09/11 06:43:33;;;;;;;28.03;22.47;;;;;;;;;;4979811;28;20285;-50
2023/09/11 06:46:00;;;;;;;28.40;22.10;;;;;;;;;;4974149;28;20237;-48
2023/09/11 06:48:27;;;;;;;28.80;22.07;;;;;;;;;;4982497;28;20582;-53
2023/09/11 06:50:55;;;;;;;26.80;22.83;;;;;;;;;;4978335;28;20209;-48
2023/09/11 06:53:22;;;;;;;28.57;23.50;;;;;;;;;;4995765;28;20232;-55
2023/09/11 06:55:49;;;;;;;28.77;22.43;;;;;;;;;;4985102;28;20837;-47
2023/09/11 06:58:18;;;;;;;26.80;21.70;;;;;;;;;;4986996;28;20300;-53
2023/09/11 07:00:45;;;;;;;29.67;22.87;;;;;;;;;;4985992;28;20197;-49
2023/09/11 07:03:12;;;;;;;26.20;21.67;;;;;;;;;;4975304;28;20630;-51
2023/09/11 07:05:39;;;;;;;27.87;22.77;;;;;;;;;;4971855;28;20197;-53
2023/09/11 07:08:07;;;;;;;26.60;21.43;;;;;;;;;;4977285;28;20279;-56
2023/09/11 07:10:34;;;;;;;29.10;22.90;;;;;;;;;;4965531;28;20241;-59
2023/09/11 07:13:02;;;;;;;25.73;22.20;;;;;;;;;;4969632;28;20505;-53
2023/09/11 07:15:30;;;;;;;25.37;20.40;;;;;;;;;;4985112;28;20212;-48
2023/09/11 07:17:57;;;;;;;26.07;22.20;;;;;;;;;;4957077;28;20387;-46
2023/09/11 07:20:25;;;;;;;25.73;20.73;;;;;;;;;;4976826;28;20206;-51
2023/09/11 07:22:52;;;;;;;23.30;20.67;;;;;;;;;;4987738;28;20197;-51
2023/09/11 07:25:22;;;;;;;23.47;20.37;;;;;;;;;;4991842;28;20217;-50
2023/09/11 07:27:50;;;;;;;22.00;19.27;;;;;;;;;;4969174;28;20289;-51
2023/09/11 07:30:17;;;;;;;24.57;20.30;;;;;;;;;;4982167;28;20671;-60
2023/09/11 07:32:45;;;;;;;21.27;18.80;;;;;;;;;;4958416;28;20385;-50
2023/09/11 07:35:13;;;;;;;23.47;20.83;;;;;;;;;;4981898;28;20252;-63
2023/09/11 07:37:40;;;;;;;23.90;19.47;;;;;;;;;;4975765;28;20197;-48
2023/09/11 07:40:08;;;;;;;20.67;18.47;;;;;;;;;;4992021;28;20197;-47
2023/09/11 07:42:36;;;;;;;20.17;18.07;;;;;;;;;;4982215;28;20263;-46
2023/09/11 07:45:03;;;;;;;23.53;19.20;;;;;;;;;;4983003;28;20296;-50
2023/09/11 07:47:30;;;;;;;20.57;17.57;;;;;;;;;;4973242;28;20252;-57
2023/09/11 07:49:59;;;;;;;20.73;17.97;;;;;;;;;;4957257;28;20240;-59
2023/09/11 07:52:26;;;;;;;21.17;17.23;;;;;;;;;;4987536;28;20200;-52
2023/09/11 07:54:53;;;;;;;18.87;16.87;;;;;;;;;;4991521;28;20621;-61
2023/09/11 07:57:20;;;;;;;17.43;15.07;;;;;;;;;;4985339;28;20570;-52
2023/09/11 07:59:47;;;;;;;22.00;16.70;;;;;;;;;;4983973;28;20283;-51
2023/09/11 08:02:15;;;;;;;18.80;16.80;;;;;;;;;;4975917;28;20339;-51
2023/09/11 08:04:42;;;;;;;19.50;15.97;;;;;;;;;;4969158;28;20221;-53
2023/09/11 08:07:11;;;;;;;17.27;14.87;;;;;;;;;;4974782;28;20217;-53
2023/09/11 08:09:38;;;;;;;16.00;14.13;;;;;;;;;;4991518;28;20200;-55
2023/09/11 08:12:06;;;;;;;18.23;15.30;;;;;;;;;;4984702;28;20213;-52
2023/09/11 08:14:33;;;;;;;17.23;14.63;;;;;;;;;;4984998;28;20303;-54
2023/09/11 08:17:00;;;;;;;15.30;13.67;;;;;;;;;;4968933;28;20295;-49
2023/09/11 08:19:27;;;;;;;14.83;13.33;;;;;;;;;;4973466;28;20245;-53
2023/09/11 08:21:55;;;;;;;15.50;13.37;;;;;;;;;;4957873;28;20217;-51
2023/09/11 08:24:24;;;;;;;17.03;13.40;;;;;;;;;;4980734;28;21012;-51
2023/09/11 08:26:51;;;;;;;15.17;13.03;;;;;;;;;;4984310;28;20742;-51
2023/09/11 08:29:20;;;;;;;14.80;13.23;;;;;;;;;;4975532;28;20197;-52
2023/09/11 08:31:47;;;;;;;12.63;11.40;;;;;;;;;;4979501;28;20205;-53
2023/09/11 08:34:15;;;;;;;14.87;13.37;;;;;;;;;;4959184;28;20249;-48
2023/09/11 08:36:42;;;;;;;14.67;13.20;;;;;;;;;;4965773;28;20232;-55
2023/09/11 08:39:09;;;;;;;12.90;11.20;;;;;;;;;;4956742;28;20229;-55
2023/09/11 08:41:38;;;;;;;12.33;11.10;;;;;;;;;;4986195;28;20239;-55
2023/09/11 08:44:06;;;;;;;13.60;12.13;;;;;;;;;;4975668;28;20276;-52
2023/09/11 08:46:34;;;;;;;12.13;10.83;;;;;;;;;;4988124;28;20567;-55
2023/09/11 08:49:03;;;;;;;12.63;11.43;;;;;;;;;;4967815;28;20251;-54
2023/09/11 08:51:33;;;;;;;13.23;11.23;;;;;;;;;;4980634;28;20638;-53
2023/09/11 08:54:02;;;;;;;11.93;10.73;;;;;;;;;;4979624;28;20596;-55
2023/09/11 08:56:31;;;;;;;11.63;10.53;;;;;;;;;;4976036;28;20660;-55
2023/09/11 08:59:00;;;;;;;11.52;10.35;;;;;;;;;;4977725;28;20218;-49
2023/09/11 09:01:28;;;;;;;12.10;10.85;;;;;;;;;;4972207;28;20688;-54
2023/09/11 09:03:55;;;;;;;14.05;10.35;;;;;;;;;;4979468;28;20622;-54
2023/09/11 09:06:22;;;;;;;8.25;7.55;;;;;;;;;;4993362;28;20201;-53
2023/09/11 09:08:50;;;;;;;10.35;9.43;;;;;;;;;;4957041;28;20258;-51
2023/09/11 09:11:17;;;;;;;10.15;9.15;;;;;;;;;;4984443;28;20213;-54
2023/09/11 09:13:45;;;;;;;10.20;9.23;;;;;;;;;;4984384;28;20227;-53
2023/09/11 09:16:13;;;;;;;10.25;9.23;;;;;;;;;;4979924;28;20306;-51
2023/09/11 09:18:48;;;;;;;8.63;7.88;;;;;;;;;;4976850;28;20339;-50
2023/09/11 09:21:15;;;;;;;13.13;9.52;;;;;;;;;;4972297;28;20185;-49
2023/09/11 09:23:42;;;;;;;10.07;8.70;;;;;;;;;;4963814;28;20248;-49
2023/09/11 09:26:11;;;;;;;8.70;8.00;;;;;;;;;;4967802;28;20291;-53
2023/09/11 09:28:44;;;;;;;9.98;8.93;;;;;;;;;;4985976;28;20208;-53
2023/09/11 09:31:12;;;;;;;9.63;8.45;;;;;;;;;;4973719;28;20234;-53
2023/09/11 09:33:41;;;;;;;8.85;7.95;;;;;;;;;;4990689;28;20323;-51
2023/09/11 09:36:08;;;;;;;10.68;8.20;;;;;;;;;;4971745;28;20451;-54
2023/09/11 09:38:36;;;;;;;15.68;8.48;;;;;;;;;;4965094;28;20647;-55
2023/09/11 09:41:10;;;;;;;8.60;7.80;;;;;;;;;;4974945;28;20279;-51
2023/09/11 09:43:37;;;;;;;10.75;8.70;;;;;;;;;;4980059;28;20221;-51
2023/09/11 09:46:18;;;;;;;8.35;7.65;;;;;;;;;;4977610;28;20185;-55
2023/09/11 09:48:46;;;;;;;9.30;7.65;;;;;;;;;;4982892;28;20597;-52
2023/09/11 09:51:15;;;;;;;8.75;7.85;;;;;;;;;;4977287;28;20197;-54
2023/09/11 09:53:44;;;;;;;7.95;7.25;;;;;;;;;;4974253;28;20228;-51
2023/09/11 09:56:12;;;;;;;8.05;7.35;;;;;;;;;;4964678;28;20347;-53
2023/09/11 09:58:41;;;;;;;15.00;8.23;;;;;;;;;;4985505;28;20717;-52
2023/09/11 10:01:09;;;;;;;9.68;7.60;;;;;;;;;;4977187;28;20283;-53
2023/09/11 10:03:40;;;;;;;10.60;7.78;;;;;;;;;;4978733;28;20291;-51
2023/09/11 10:06:09;;;;;;;11.93;7.65;;;;;;;;;;4979590;28;20205;-51
2023/09/11 10:08:37;;;;;;;8.55;6.93;;;;;;;;;;4981087;28;20236;-53
2023/09/11 10:11:06;;;;;;;10.35;7.10;;;;;;;;;;4961955;28;20979;-52
2023/09/11 10:13:36;;;;;;;7.53;6.80;;;;;;;;;;4993027;28;20950;-51
2023/09/11 10:16:04;;;;;;;11.70;7.43;;;;;;;;;;4979488;28;20414;-50
2023/09/11 10:18:32;;;;;;;7.95;6.65;;;;;;;;;;4984186;28;20207;-49
2023/09/11 10:20:59;;;;;;;8.63;6.22;;;;;;;;;;4984709;28;20196;-47
2023/09/11 10:23:28;;;;;;;9.10;7.18;;;;;;;;;;4984405;28;20224;-51
2023/09/11 10:25:58;;;;;;;7.93;6.93;;;;;;;;;;4960610;28;20268;-52
2023/09/11 10:28:27;;;;;;;12.68;7.05;;;;;;;;;;4982077;28;20228;-53
2023/09/11 10:30:57;;;;;;;7.30;6.60;;;;;;;;;;4977760;28;20247;-51
2023/09/11 10:33:26;;;;;;;8.32;6.47;;;;;;;;;;4983225;28;20946;-53
2023/09/11 10:35:56;;;;;;;8.70;6.70;;;;;;;;;;4981439;28;20698;-52
2023/09/11 10:38:23;;;;;;;6.97;6.28;;;;;;;;;;4979059;28;20198;-53
2023/09/11 10:40:54;;;;;;;7.90;6.20;;;;;;;;;;4969990;28;20259;-53
2023/09/11 10:43:21;;;;;;;10.75;5.93;;;;;;;;;;4977389;28;20228;-55
2023/09/11 10:45:49;;;;;;;9.52;6.38;;;;;;;;;;4983596;28;20221;-51
2023/09/11 10:48:29;;;;;;;9.15;6.30;;;;;;;;;;4980904;28;20193;-50
2023/09/11 10:50:57;;;;;;;9.13;6.70;;;;;;;;;;4984554;28;20235;-51
2023/09/11 10:53:28;;;;;;;15.35;7.03;;;;;;;;;;4969975;28;20361;-53
2023/09/11 10:55:59;;;;;;;9.32;6.40;;;;;;;;;;4970373;28;20292;-53
2023/09/11 10:58:28;;;;;;;9.30;6.68;;;;;;;;;;4976192;28;20304;-51
2023/09/11 11:00:56;;;;;;;11.90;7.03;;;;;;;;;;4976532;28;20705;-50
2023/09/11 11:03:25;;;;;;;14.82;6.60;;;;;;;;;;4972275;28;20421;-51
2023/09/11 11:05:53;;;;;;;10.75;6.35;;;;;;;;;;4985185;28;20213;-54
2023/09/11 11:08:20;;;;;;;10.77;6.00;;;;;;;;;;4975831;28;20271;-53
2023/09/11 11:10:49;;;;;;;7.72;6.75;;;;;;;;;;4989097;28;20275;-50
2023/09/11 11:13:18;;;;;;;12.40;6.70;;;;;;;;;;4963504;28;20372;-53
2023/09/11 11:15:48;;;;;;;11.55;6.55;;;;;;;;;;4986436;28;20797;-53
2023/09/11 11:18:18;;;;;;;9.93;6.28;;;;;;;;;;4978470;28;20243;-54
2023/09/11 11:21:04;;;;;;;9.20;5.88;;;;;;;;;;4986273;28;20747;-48
2023/09/11 11:23:32;;;;;;;10.43;6.32;;;;;;;;;;4979928;28;20237;-53
2023/09/11 11:26:02;;;;;;;12.05;5.90;;;;;;;;;;4979411;28;20327;-51
2023/09/11 11:28:39;;;;;;;14.13;6.28;;;;;;;;;;4959975;28;20296;-57
2023/09/11 11:31:07;;;;;;;12.73;6.05;;;;;;;;;;4985588;28;20245;-50
2023/09/11 11:33:35;;;;;;;12.98;5.80;;;;;;;;;;4980994;28;20229;-54
2023/09/11 11:36:03;;;;;;;13.52;5.88;;;;;;;;;;4983973;28;20205;-52
2023/09/11 11:38:30;;;;;;;9.90;5.57;;;;;;;;;;4974432;28;20252;-54
2023/09/11 11:40:58;;;;;;;11.10;6.13;;;27.30;99.90;;;;;;4977973;28;20217;-55
2023/09/11 11:43:28;;;;;;;13.85;6.45;;;;;;;;;;4956393;28;20289;-57
2023/09/11 11:45:59;;;;;;;10.70;6.47;;;;;;;;;;4983166;28;20194;-55
2023/09/11 11:48:27;;;;;;;6.35;5.75;;;;;;;;;;4981850;28;20860;-57
2023/09/11 11:50:55;;;;;;;13.73;7.32;;;;;;;;;;4985263;28;20219;-57
2023/09/11 11:53:23;;;;;;;12.82;6.47;;;;;;;;;;4976883;28;20285;-56
2023/09/11 11:55:50;;;;;;;16.92;6.63;;;;;;;;;;4992738;28;20216;-55
2023/09/11 11:58:17;;;;;;;12.10;5.63;;;;;;;;;;4957278;28;20652;-47
2023/09/11 12:00:58;;;;;;;10.73;6.80;;;;;;;;;;4988274;28;20714;-51
2023/09/11 12:03:26;;;;;;;11.25;7.07;;;;;;;;;;4975476;28;20918;-53
2023/09/11 12:05:53;;;;;;;8.48;6.15;;;;;;;;;;4980838;28;20293;-56
2023/09/11 12:08:20;;;;;;;9.73;6.35;;;;;;;;;;4974389;28;20659;-53
2023/09/11 12:10:49;;;;;;;10.13;6.78;;;28.00;99.90;;;;;;4977902;28;20210;-54
2023/09/11 12:13:17;;;;;;;10.15;6.30;;;28.00;99.90;;;;;;4964426;28;20233;-49
2023/09/11 12:15:51;;;;;;;10.55;6.05;;;28.10;99.90;;;;;;4975964;28;20201;-56
2023/09/11 12:18:19;;;;;;;12.23;6.70;;;28.20;99.90;;;;;;4982671;28;20682;-48
2023/09/11 12:20:53;;;;;;;10.30;6.93;;;28.20;99.90;;;;;;4979522;28;20217;-53
2023/09/11 12:23:20;;;;;;;8.15;6.47;;;28.10;99.90;;;;;;4992286;28;20220;-57
2023/09/11 12:25:48;;;;;;;11.60;7.20;;;28.10;99.90;;;;;;4983661;28;20244;-51
2023/09/11 12:28:15;;;;;;;11.27;6.72;;;28.10;99.90;;;;;;4969021;28;20247;-46
2023/09/11 12:30:44;;;;;;;9.70;6.15;;;28.10;99.90;;;;;;4982691;28;20208;-55
2023/09/11 12:33:12;;;;;;;8.57;6.15;;;28.10;99.80;;;;;;4984889;28;20561;-49
2023/09/11 12:35:41;;;;;;;12.05;6.88;;;28.20;99.50;;;;;;4989933;28;20201;-58
2023/09/11 12:38:10;;;;;;;10.95;6.32;;;28.20;99.40;;;;;;4982020;28;20197;-50
2023/09/11 12:40:37;;;;;;;12.93;7.10;;;28.20;99.30;;;;;;4978054;28;20296;-57
2023/09/11 12:43:04;;;;;;;8.05;6.40;;;28.30;99.20;;;;;;4968068;28;21289;-52
2023/09/11 12:45:31;;;;;;;11.52;6.30;;;28.30;99.00;;;;;;4966804;28;20241;-55
2023/09/11 12:47:58;;;;;;;8.20;6.30;;;28.40;99.60;;;;;;4970168;28;20267;-50
2023/09/11 12:50:26;;;;;;;12.90;7.35;;;28.60;99.90;;;;;;4971170;28;20194;-57
2023/09/11 12:52:56;;;;;;;8.43;6.72;;;28.70;99.80;;;;;;4985967;28;20288;-45
2023/09/11 12:55:22;;;;;;;9.80;6.63;;;28.90;99.50;;;;;;4986863;28;20189;-53
2023/09/11 12:57:51;;;;;;;12.35;6.30;;;28.90;99.00;;;;;;4984934;28;20201;-51
2023/09/11 13:00:18;;;;;;;7.85;6.97;;;28.90;98.80;;;;;;4956628;28;20304;-47
2023/09/11 13:02:45;;;;;;;7.40;6.50;;;28.90;98.40;;;;;;4969246;28;20267;-57
2023/09/11 13:05:12;;;;;;;10.43;7.60;;;28.90;98.80;;;;;;4980792;28;20217;-56
2023/09/11 13:07:39;;;;;;;9.65;7.15;;;29.20;98.80;;;;;;4977085;28;20204;-55
2023/09/11 13:10:08;;;;;;;14.73;8.40;;;29.30;98.60;;;;;;4983459;28;20668;-57
2023/09/11 13:12:35;;;;;;;10.55;8.52;;;29.50;98.40;;;;;;4980586;28;20283;-52
2023/09/11 13:15:03;;;;;;;12.00;7.90;;;29.60;98.40;;;;;;4961588;28;20236;-56
2023/09/11 13:17:31;;;;;;;12.75;7.10;;;29.80;98.30;;;;;;4975562;28;20213;-54
2023/09/11 13:19:59;;;;;;;9.82;7.30;;;29.90;98.40;;;;;;4972806;28;20280;-52
2023/09/11 13:22:25;;;;;;;8.95;7.57;;;30.20;98.30;;;;;;4987365;28;20785;-58
2023/09/11 13:24:52;;;;;;;8.45;7.20;;;30.70;97.00;;;;;;4973737;28;20218;-48
2023/09/11 13:27:21;;;;;;;13.20;7.82;;;30.90;96.40;;;;;;4968988;28;20206;-52
2023/09/11 13:29:47;;;;;;;9.45;6.80;;;31.10;94.70;;;;;;4964176;28;20275;-49
2023/09/11 13:32:16;;;;;;;11.48;7.47;;;31.20;95.40;;;;;;4968908;28;20738;-58
2023/09/11 13:34:44;;;;;;;12.75;7.78;;;31.50;95.10;;;;;;4982236;28;20231;-51
2023/09/11 13:37:11;;;;;;;11.60;7.68;;;31.80;94.50;;;;;;4985874;28;20197;-58
2023/09/11 13:39:38;;;;;;;10.93;7.22;;;32.00;93.70;;;;;;4977085;28;20237;-50
2023/09/11 13:42:05;;;;;;;12.23;7.82;;;32.10;93.30;;;;;;4986263;28;20376;-55
2023/09/11 13:44:33;;;;;;;14.07;7.25;;;32.40;92.70;;;;;;4965111;28;20233;-55
2023/09/11 13:47:00;;;;;;;11.43;6.90;;;32.60;92.10;;;;;;4955947;28;20321;-48
2023/09/11 13:49:27;;;;;;;12.63;7.05;;;32.80;91.80;;;;;;4988952;28;20205;-57
2023/09/11 13:51:55;;;;;;;7.65;6.68;;;32.90;92.10;;;;;;4977063;28;20205;-48
2023/09/11 13:54:22;;;;;;;14.27;7.22;;;33.10;90.90;;;;;;4974991;28;20228;-54
2023/09/11 13:56:50;;;;;;;10.27;6.47;;;33.10;90.40;;;;;;4974890;28;20209;-49
2023/09/11 13:59:17;;;;;;;15.68;7.15;;;33.20;89.90;;;;;;4982049;28;20205;-51
2023/09/11 14:01:45;;;;;;;8.80;6.20;;;33.40;87.10;;;;;;4956053;28;20249;-50
2023/09/11 14:04:12;;;;;;;8.20;6.75;;;33.50;86.60;;;;;;4973429;28;20256;-49
2023/09/11 14:06:39;;;;;;;12.00;6.85;;;33.70;86.70;;;;;;4988311;28;20204;-48
2023/09/11 14:09:06;;;;;;;12.57;6.55;;;33.90;85.60;;;;;;4979181;28;20638;-54